Time;durP1;ratioP1;P1;durP2;ratioP2;P2;SDS_P1;SDS_P2;PMS_P1;PMS_P2;Temp;Humidity;BMP_temperature;BMP_pressure;BME280_temperature;BME280_humidity;BME280_pressure;Samples;Min_cycle;Max_cycle;Signal;HPM_P1;HPM_P2
2021/07/06 00:00:16;;;;;;;12.83;11.50;;;15.90;99.90;;;;;;5047208;28;20678;-73
2021/07/06 00:02:42;;;;;;;14.03;12.07;;;16.00;99.90;;;;;;5052006;28;20206;-73
2021/07/06 00:05:08;;;;;;;14.17;12.63;;;15.90;99.90;;;;;;5051048;28;20185;-73
2021/07/06 00:07:34;;;;;;;14.70;12.87;;;15.90;99.90;;;;;;5051984;28;20705;-73
2021/07/06 00:10:00;;;;;;;14.07;12.77;;;15.90;99.90;;;;;;5052194;28;20242;-73
2021/07/06 00:12:26;;;;;;;14.50;13.20;;;15.90;99.90;;;;;;5050783;28;20240;-73
2021/07/06 00:14:53;;;;;;;13.87;12.47;;;15.90;99.90;;;;;;5048598;28;20208;-73
2021/07/06 00:17:19;;;;;;;14.13;12.73;;;15.90;99.90;;;;;;5030837;28;20178;-73
2021/07/06 00:19:45;;;;;;;13.07;11.77;;;15.90;99.90;;;;;;5030492;28;20175;-73
2021/07/06 00:22:11;;;;;;;12.40;10.77;;;15.80;99.90;;;;;;5031035;28;20214;-73
2021/07/06 00:24:37;;;;;;;13.13;11.77;;;15.80;99.90;;;;;;5032165;28;20177;-73
2021/07/06 00:27:03;;;;;;;13.50;11.80;;;15.80;99.90;;;;;;5045746;28;20185;-73
2021/07/06 00:29:29;;;;;;;13.53;12.23;;;15.80;99.90;;;;;;5051760;28;20264;-73
2021/07/06 00:31:56;;;;;;;15.40;12.40;;;15.80;99.90;;;;;;5051360;28;20209;-73
2021/07/06 00:34:21;;;;;;;13.93;12.43;;;15.80;99.90;;;;;;5051562;28;20173;-73
2021/07/06 00:36:47;;;;;;;13.20;11.73;;;15.80;99.90;;;;;;5033744;28;20627;-73
2021/07/06 00:39:13;;;;;;;13.17;11.63;;;15.80;99.90;;;;;;5051533;28;20209;-73
2021/07/06 00:41:39;;;;;;;13.33;11.93;;;15.80;99.90;;;;;;5049187;28;20210;-73
2021/07/06 00:44:11;;;;;;;13.67;12.27;;;15.70;99.90;;;;;;5051891;28;20523;-73
2021/07/06 00:46:36;;;;;;;12.93;11.60;;;15.70;99.90;;;;;;5051507;28;20170;-72
2021/07/06 00:49:02;;;;;;;15.10;11.57;;;15.70;99.90;;;;;;5051349;28;20236;-72
2021/07/06 00:51:27;;;;;;;13.63;12.23;;;15.70;99.90;;;;;;5032559;28;20213;-72
2021/07/06 00:53:53;;;;;;;12.90;11.43;;;15.70;99.90;;;;;;5051196;28;20257;-72
2021/07/06 00:56:19;;;;;;;13.77;11.70;;;15.70;99.90;;;;;;5051021;28;20189;-72
2021/07/06 00:58:48;;;;;;;15.20;11.73;;;15.70;99.90;;;;;;5050189;28;20185;-72
2021/07/06 01:01:14;;;;;;;14.10;12.60;;;15.60;99.90;;;;;;5050372;28;20730;-72
2021/07/06 01:03:39;;;;;;;12.97;11.73;;;15.70;99.90;;;;;;5051051;28;20253;-72
2021/07/06 01:06:05;;;;;;;15.17;13.57;;;15.60;99.90;;;;;;5051268;28;20650;-73
2021/07/06 01:08:30;;;;;;;13.27;11.97;;;15.60;99.90;;;;;;5050172;28;20362;-73
2021/07/06 01:10:57;;;;;;;15.90;12.17;;;15.60;99.90;;;;;;5050948;28;20197;-72
2021/07/06 01:13:24;;;;;;;12.63;11.37;;;15.60;99.90;;;;;;5050820;28;20174;-73
2021/07/06 01:15:49;;;;;;;12.57;11.10;;;15.60;99.90;;;;;;5050328;28;20174;-73
2021/07/06 01:18:16;;;;;;;12.20;11.10;;;15.50;99.90;;;;;;5050942;28;20661;-73
2021/07/06 01:20:53;;;;;;;12.50;11.27;;;15.60;99.90;;;;;;5032674;28;20184;-72
2021/07/06 01:23:21;;;;;;;12.63;11.43;;;15.50;99.90;;;;;;5055473;22;20234;-72
2021/07/06 01:25:50;;;;;;;13.60;11.40;;;15.50;99.90;;;;;;5031210;28;20252;-72
2021/07/06 01:42:03;;;;;;;12.63;11.33;;;15.30;99.90;;;;;;5050743;28;20282;-72
2021/07/06 01:44:28;;;;;;;12.23;10.87;;;15.40;99.90;;;;;;5028209;28;20650;-73
2021/07/06 01:46:54;;;;;;;12.97;11.23;;;15.30;99.90;;;;;;5033457;28;20174;-73
2021/07/06 01:49:21;;;;;;;13.23;11.47;;;15.40;99.90;;;;;;5033391;28;20166;-74
2021/07/06 01:51:47;;;;;;;12.53;11.30;;;15.40;99.90;;;;;;5031772;28;20225;-73
2021/07/06 01:54:14;;;;;;;12.43;11.13;;;15.30;99.90;;;;;;5038292;28;20347;-74
2021/07/06 01:56:41;;;;;;;12.83;11.63;;;15.30;99.90;;;;;;5051293;28;20577;-74
2021/07/06 01:59:07;;;;;;;13.20;11.90;;;15.30;99.90;;;;;;5017157;28;20201;-74
2021/07/06 02:01:34;;;;;;;13.40;11.97;;;15.30;99.90;;;;;;5041294;28;20265;-74
2021/07/06 02:04:01;;;;;;;15.63;12.50;;;15.20;99.90;;;;;;5031092;28;20205;-74
2021/07/06 02:06:27;;;;;;;14.17;12.70;;;15.20;99.90;;;;;;5031051;28;20186;-73
2021/07/06 02:08:53;;;;;;;15.07;13.47;;;15.20;99.90;;;;;;5031482;28;20256;-73
2021/07/06 02:11:18;;;;;;;14.47;12.97;;;15.10;99.90;;;;;;5030799;28;20705;-74
2021/07/06 02:13:44;;;;;;;15.27;13.67;;;15.20;99.90;;;;;;5030840;28;20220;-74
2021/07/06 02:16:10;;;;;;;14.80;13.40;;;15.10;99.90;;;;;;5030932;28;20253;-75
2021/07/06 02:18:36;;;;;;;14.23;12.73;;;15.10;99.90;;;;;;5030780;28;20163;-74
2021/07/06 02:21:02;;;;;;;14.43;13.13;;;15.10;99.90;;;;;;5030346;28;20182;-74
2021/07/06 02:23:30;;;;;;;13.43;12.13;;;15.10;99.90;;;;;;5030790;28;20658;-74
2021/07/06 02:26:00;;;;;;;13.90;12.30;;;15.20;99.90;;;;;;5030805;28;20196;-74
2021/07/06 02:28:26;;;;;;;12.53;11.23;;;15.10;99.90;;;;;;5030838;28;20159;-73
2021/07/06 02:30:51;;;;;;;12.17;10.97;;;15.10;99.90;;;;;;5030374;28;20202;-73
2021/07/06 02:33:18;;;;;;;13.30;11.90;;;15.10;99.90;;;;;;5013123;28;20200;-74
2021/07/06 02:35:43;;;;;;;13.23;11.87;;;15.00;99.90;;;;;;5013021;28;20166;-73
2021/07/06 02:38:10;;;;;;;12.83;11.57;;;15.00;99.90;;;;;;5016325;28;20185;-74
2021/07/06 02:40:36;;;;;;;13.87;12.57;;;15.00;99.90;;;;;;5033676;28;20178;-73
2021/07/06 02:43:02;;;;;;;13.73;11.70;;;15.00;99.90;;;;;;5034341;28;20216;-74
2021/07/06 02:45:29;;;;;;;13.63;12.23;;;15.00;99.90;;;;;;5048823;28;20190;-73
2021/07/06 02:47:55;;;;;;;13.57;12.17;;;15.00;99.90;;;;;;5054381;28;20221;-73
2021/07/06 02:50:23;;;;;;;13.40;12.07;;;15.00;99.90;;;;;;5053575;28;20190;-73
2021/07/06 02:52:50;;;;;;;14.70;12.67;;;15.10;99.90;;;;;;5035805;28;20617;-74
2021/07/06 02:55:16;;;;;;;15.97;13.27;;;15.00;99.90;;;;;;5053562;28;20714;-73
2021/07/06 02:57:43;;;;;;;15.27;13.63;;;15.10;99.90;;;;;;5019664;28;20254;-75
2021/07/06 03:00:15;;;;;;;17.47;15.67;;;15.10;99.90;;;;;;5034717;28;20193;-73
2021/07/06 03:02:44;;;;;;;14.90;13.40;;;15.10;99.90;;;;;;5033122;28;20197;-73
2021/07/06 03:05:11;;;;;;;15.07;13.47;;;15.10;99.90;;;;;;5001821;28;20597;-74
2021/07/06 03:07:38;;;;;;;15.67;14.07;;;15.10;99.90;;;;;;5014119;28;20179;-73
2021/07/06 03:10:06;;;;;;;15.27;13.23;;;15.20;99.90;;;;;;5014304;28;20526;-73
2021/07/06 03:12:34;;;;;;;17.17;14.30;;;15.20;99.90;;;;;;5028149;28;20222;-73
2021/07/06 03:15:00;;;;;;;17.93;13.97;;;15.30;99.90;;;;;;4996548;28;20179;-73
2021/07/06 03:17:37;;;;;;;16.93;14.57;;;15.30;99.90;;;;;;5014040;28;20535;-73
2021/07/06 03:20:07;;;;;;;18.30;15.30;;;15.40;99.90;;;;;;4996452;28;20260;-73
2021/07/06 03:22:36;;;;;;;15.50;13.57;;;15.40;99.90;;;;;;5012857;28;20215;-73
2021/07/06 03:25:02;;;;;;;16.63;14.83;;;15.50;99.90;;;;;;4996366;28;20171;-73
2021/07/06 03:27:28;;;;;;;14.47;13.00;;;15.50;99.90;;;;;;4995984;28;20176;-72
2021/07/06 03:29:59;;;;;;;15.03;13.47;;;15.60;99.90;;;;;;5013755;28;20178;-73
2021/07/06 03:32:25;;;;;;;15.30;13.80;;;15.60;99.90;;;;;;5013041;28;20210;-73
2021/07/06 03:34:50;;;;;;;15.47;13.67;;;15.70;99.90;;;;;;5013776;28;20167;-74
2021/07/06 03:37:16;;;;;;;15.00;13.40;;;15.70;99.90;;;;;;5013518;28;20179;-74
2021/07/06 03:39:50;;;;;;;14.60;13.10;;;15.80;99.90;;;;;;5041771;28;20181;-72
2021/07/06 03:42:16;;;;;;;18.03;13.23;;;16.00;99.90;;;;;;5035088;28;20578;-73
2021/07/06 03:44:44;;;;;;;13.53;12.03;;;17.10;99.90;;;;;;5029621;28;20182;-73
2021/07/06 03:47:10;;;;;;;10.77;9.77;;;18.00;99.90;;;;;;5033261;28;20429;-73
2021/07/06 03:49:35;;;;;;;10.87;9.87;;;18.90;99.90;;;;;;5033552;28;20593;-73
2021/07/06 03:52:02;;;;;;;10.93;9.83;;;19.50;99.90;;;;;;5032739;28;20216;-74
2021/07/06 03:54:39;;;;;;;10.80;9.67;;;20.00;99.90;;;;;;5042184;28;20182;-73
2021/07/06 03:57:04;;;;;;;11.07;10.00;;;20.40;99.90;;;;;;5053298;28;20173;-73
2021/07/06 03:59:32;;;;;;;11.07;9.47;;;20.90;99.90;;;;;;5053102;28;20176;-73
2021/07/06 04:02:01;;;;;;;10.43;9.43;;;21.20;99.90;;;;;;5050600;28;20236;-74
2021/07/06 04:04:27;;;;;;;10.27;9.27;;;21.30;99.90;;;;;;5035273;28;20181;-75
2021/07/06 04:06:53;;;;;;;10.30;9.30;;;21.40;99.90;;;;;;5034776;28;20170;-73
2021/07/06 04:09:19;;;;;;;10.20;9.20;;;21.40;99.90;;;;;;5052485;28;20652;-74
2021/07/06 04:11:44;;;;;;;10.10;9.10;;;21.60;99.90;;;;;;5032276;28;20255;-74
2021/07/06 04:14:10;;;;;;;10.67;9.03;;;21.60;99.90;;;;;;5030040;28;20324;-74
2021/07/06 04:16:39;;;;;;;11.97;9.67;;;21.40;99.90;;;;;;5037241;28;20178;-74
2021/07/06 04:19:08;;;;;;;11.57;10.43;;;21.00;99.90;;;;;;5032657;28;20183;-74
2021/07/06 04:21:35;;;;;;;11.33;10.00;;;19.90;99.90;;;;;;5030387;28;20218;-74
2021/07/06 04:24:01;;;;;;;12.50;10.53;;;19.20;99.90;;;;;;5032284;28;20194;-74
2021/07/06 04:26:27;;;;;;;11.70;10.37;;;18.80;99.90;;;;;;5033002;28;20193;-73
2021/07/06 04:28:53;;;;;;;19.47;14.43;;;18.50;99.90;;;;;;5043075;28;20181;-73
2021/07/06 04:31:18;;;;;;;14.73;12.27;;;18.30;99.90;;;;;;5039621;28;20206;-73
2021/07/06 04:33:44;;;;;;;15.93;11.57;;;18.20;99.90;;;;;;5032203;28;20178;-73
2021/07/06 04:36:09;;;;;;;14.77;11.77;;;18.20;99.90;;;;;;5032715;28;20185;-74
2021/07/06 04:38:35;;;;;;;11.87;10.67;;;18.20;99.90;;;;;;5039969;28;20706;-74
2021/07/06 04:41:00;;;;;;;13.10;11.80;;;18.10;99.90;;;;;;5051358;28;20223;-73
2021/07/06 04:43:26;;;;;;;12.60;11.40;;;18.10;99.90;;;;;;5051751;28;20569;-73
2021/07/06 04:45:51;;;;;;;13.23;11.93;;;18.10;99.90;;;;;;5050012;28;20209;-74
2021/07/06 04:48:17;;;;;;;13.47;12.13;;;18.20;99.90;;;;;;5044067;28;20178;-74
2021/07/06 04:50:42;;;;;;;13.27;10.67;;;18.40;99.90;;;;;;5030058;28;20213;-73
2021/07/06 04:53:08;;;;;;;16.30;12.20;;;18.30;99.90;;;;;;5031552;28;20237;-73
2021/07/06 04:55:35;;;;;;;13.10;11.80;;;18.40;99.90;;;;;;5031909;28;20158;-73
2021/07/06 04:58:02;;;;;;;13.13;11.30;;;18.30;99.90;;;;;;5016919;28;20174;-74
2021/07/06 05:00:27;;;;;;;12.77;11.40;;;18.30;99.90;;;;;;5050197;28;20174;-73
2021/07/06 05:02:53;;;;;;;12.03;10.83;;;18.20;99.90;;;;;;5051747;28;20560;-73
2021/07/06 05:05:19;;;;;;;11.70;10.57;;;18.20;99.90;;;;;;5051421;28;20181;-73
2021/07/06 05:07:45;;;;;;;13.00;11.03;;;18.30;99.90;;;;;;5024688;28;20179;-73
2021/07/06 05:10:12;;;;;;;13.70;11.60;;;18.30;99.90;;;;;;5053531;28;20169;-73
2021/07/06 05:12:39;;;;;;;13.80;11.77;;;18.40;99.90;;;;;;5053840;28;20211;-73
2021/07/06 05:15:06;;;;;;;12.93;11.50;;;18.50;99.90;;;;;;5055034;28;20169;-73
2021/07/06 05:17:32;;;;;;;12.80;10.73;;;18.60;99.90;;;;;;5042137;28;20232;-73
2021/07/06 05:19:58;;;;;;;12.33;11.00;;;18.50;99.90;;;;;;5056103;28;20275;-73
2021/07/06 05:22:24;;;;;;;11.37;10.23;;;18.30;99.90;;;;;;5035385;28;20209;-74
2021/07/06 05:24:50;;;;;;;13.20;10.27;;;18.30;99.90;;;;;;5053680;28;20174;-73
2021/07/06 05:27:16;;;;;;;11.50;10.30;;;18.20;99.90;;;;;;5052186;28;20174;-73
2021/07/06 05:29:41;;;;;;;13.07;10.47;;;18.30;99.90;;;;;;5049843;28;20670;-74
2021/07/06 05:32:07;;;;;;;12.77;10.40;;;18.30;99.90;;;;;;5043269;28;20239;-73
2021/07/06 05:34:33;;;;;;;11.70;10.57;;;18.40;99.90;;;;;;5035201;28;20228;-72
2021/07/06 05:36:59;;;;;;;13.60;10.40;;;18.40;99.90;;;;;;5036993;28;20166;-73
2021/07/06 05:39:24;;;;;;;11.33;9.83;;;18.70;99.90;;;;;;5024928;28;20362;-73
2021/07/06 05:41:50;;;;;;;11.83;10.00;;;18.90;99.90;;;;;;5033098;28;20202;-73
2021/07/06 05:44:16;;;;;;;11.27;10.07;;;19.00;99.90;;;;;;5036310;28;20654;-73
2021/07/06 05:46:42;;;;;;;11.73;10.07;;;19.10;99.90;;;;;;5034546;28;20673;-73
2021/07/06 05:49:08;;;;;;;11.90;10.70;;;19.00;99.90;;;;;;5049532;28;20257;-73
2021/07/06 05:51:33;;;;;;;12.57;11.30;;;19.10;99.90;;;;;;5053200;28;20194;-73
2021/07/06 05:53:59;;;;;;;11.57;10.23;;;19.10;99.90;;;;;;5033261;28;20181;-73
2021/07/06 05:56:24;;;;;;;11.97;10.67;;;19.10;99.90;;;;;;5047368;28;20173;-73
2021/07/06 05:58:51;;;;;;;11.80;10.07;;;19.20;99.90;;;;;;5030917;28;20255;-73
2021/07/06 06:01:17;;;;;;;11.70;10.27;;;19.50;99.90;;;;;;5028713;28;20190;-73
2021/07/06 06:03:43;;;;;;;15.17;10.93;;;19.30;99.90;;;;;;5049370;28;20182;-73
2021/07/06 06:06:09;;;;;;;13.63;10.67;;;19.40;99.90;;;;;;5051257;28;20170;-73
2021/07/06 06:08:38;;;;;;;11.47;10.27;;;19.30;99.90;;;;;;5049851;28;20213;-73
2021/07/06 06:11:05;;;;;;;11.47;10.03;;;19.50;99.90;;;;;;5052071;28;20284;-73
2021/07/06 06:13:31;;;;;;;12.93;9.87;;;19.70;99.90;;;;;;5055427;28;20200;-73
2021/07/06 06:15:57;;;;;;;11.40;8.97;;;20.10;99.90;;;;;;5042954;28;20174;-73
2021/07/06 06:18:22;;;;;;;14.10;9.07;;;20.30;99.90;;;;;;5053611;28;20555;-73
2021/07/06 06:20:48;;;;;;;9.50;8.70;;;20.60;99.90;;;;;;5054441;28;20231;-73
2021/07/06 06:23:13;;;;;;;12.13;8.33;;;20.80;99.90;;;;;;5054626;28;20205;-73
2021/07/06 06:25:39;;;;;;;9.40;7.83;;;20.90;99.90;;;;;;5055228;28;20631;-73
2021/07/06 06:28:04;;;;;;;9.57;8.63;;;21.30;99.90;;;;;;5053015;28;20214;-73
2021/07/06 06:30:30;;;;;;;7.83;7.10;;;21.30;99.90;;;;;;5054359;28;20202;-72
2021/07/06 06:32:56;;;;;;;9.47;8.33;;;21.30;99.90;;;;;;5037790;28;20273;-73
2021/07/06 06:35:22;;;;;;;9.97;7.90;;;21.30;99.90;;;;;;5034763;28;20193;-72
2021/07/06 06:37:48;;;;;;;10.47;8.87;;;21.40;99.90;;;;;;5045763;28;20664;-72
2021/07/06 06:40:14;;;;;;;9.10;8.17;;;21.50;99.90;;;;;;5055259;28;20248;-72
2021/07/06 06:42:40;;;;;;;9.47;8.47;;;21.60;99.90;;;;;;5054073;28;20199;-72
2021/07/06 06:45:08;;;;;;;7.70;6.93;;;21.40;99.90;;;;;;5046315;28;20188;-74
2021/07/06 06:47:38;;;;;;;7.30;6.60;;;21.10;99.90;;;;;;5034121;28;20654;-72
2021/07/06 06:50:05;;;;;;;8.17;7.33;;;20.80;99.90;;;;;;5035427;28;20647;-71
2021/07/06 06:52:31;;;;;;;7.93;7.13;;;20.70;99.90;;;;;;5031930;28;20210;-74
2021/07/06 06:54:57;;;;;;;8.87;7.67;;;20.70;99.90;;;;;;5031006;28;20176;-73
2021/07/06 06:57:25;;;;;;;16.10;10.07;;;20.70;99.90;;;;;;5049624;28;20715;-72
2021/07/06 06:59:51;;;;;;;8.37;6.90;;;20.60;99.90;;;;;;5034583;28;20253;-72
2021/07/06 07:02:17;;;;;;;7.23;6.13;;;20.60;99.90;;;;;;5033972;28;20581;-73
2021/07/06 07:04:50;;;;;;;10.77;6.87;;;20.60;99.90;;;;;;5033943;28;20176;-73
2021/07/06 07:07:18;;;;;;;7.93;6.97;;;20.70;99.90;;;;;;5034143;28;20622;-73
2021/07/06 07:09:44;;;;;;;8.30;6.57;;;20.80;99.90;;;;;;5030235;28;20188;-73
2021/07/06 07:12:10;;;;;;;10.00;7.20;;;21.10;99.90;;;;;;5033322;28;20265;-73
2021/07/06 07:14:37;;;;;;;8.73;7.00;;;21.10;99.90;;;;;;5034681;28;20522;-73
2021/07/06 07:17:04;;;;;;;10.43;8.77;;;21.30;99.90;;;;;;5034086;28;20184;-73
2021/07/06 07:19:30;;;;;;;9.37;7.20;;;21.20;99.90;;;;;;5016756;28;20183;-73
2021/07/06 07:21:55;;;;;;;6.70;5.60;;;21.20;99.90;;;;;;5057734;22;20227;-73
2021/07/06 07:24:21;;;;;;;6.07;5.17;;;21.20;99.90;;;;;;5052372;28;20242;-74
2021/07/06 07:26:47;;;;;;;5.47;4.97;;;21.20;99.90;;;;;;5050891;28;20560;-73
2021/07/06 07:29:12;;;;;;;5.63;5.20;;;21.10;99.90;;;;;;5053346;28;20289;-73
2021/07/06 07:31:38;;;;;;;7.77;5.30;;;21.40;99.90;;;;;;5052427;28;20733;-74
2021/07/06 07:34:04;;;;;;;5.27;4.77;;;21.80;99.90;;;;;;5050599;28;20182;-75
2021/07/06 07:36:29;;;;;;;4.70;4.30;;;21.90;99.90;;;;;;5053962;28;20174;-75
2021/07/06 07:38:56;;;;;;;5.83;4.40;;;22.00;99.90;;;;;;5053018;28;20184;-73
2021/07/06 07:41:22;;;;;;;3.77;3.20;;;22.00;99.90;;;;;;5053051;28;20231;-73
2021/07/06 07:43:54;;;;;;;4.63;3.97;;;22.00;99.90;;;;;;5052869;28;20693;-74
2021/07/06 07:46:23;;;;;;;3.93;3.63;;;22.00;99.90;;;;;;5053083;28;20184;-74
2021/07/06 07:48:49;;;;;;;4.03;3.63;;;22.20;99.90;;;;;;5052817;28;20233;-74
2021/07/06 07:51:15;;;;;;;3.30;3.00;;;22.30;99.90;;;;;;5052139;28;20292;-73
2021/07/06 07:53:41;;;;;;;3.80;3.47;;;22.30;99.90;;;;;;5052577;28;20193;-74
2021/07/06 07:56:07;;;;;;;6.17;3.70;;;22.40;99.90;;;;;;5053685;28;20158;-75
2021/07/06 07:58:32;;;;;;;3.73;3.43;;;22.30;99.90;;;;;;5052972;28;20268;-74
2021/07/06 08:00:58;;;;;;;3.67;3.37;;;22.20;99.90;;;;;;5051899;28;20177;-73
2021/07/06 08:03:23;;;;;;;3.87;2.73;;;22.20;99.90;;;;;;5035346;28;20224;-74
2021/07/06 08:05:49;;;;;;;1.80;1.70;;;22.20;99.90;;;;;;5052273;28;20181;-74
2021/07/06 08:08:15;;;;;;;6.83;2.10;;;22.40;99.90;;;;;;5044659;28;20690;-73
2021/07/06 08:10:41;;;;;;;2.47;1.93;;;22.50;99.90;;;;;;5031795;28;20239;-73
2021/07/06 08:13:09;;;;;;;2.27;2.17;;;22.70;99.90;;;;;;5034587;28;20192;-72
2021/07/06 08:15:34;;;;;;;2.87;2.20;;;22.70;99.90;;;;;;5051757;28;20691;-73
2021/07/06 08:18:00;;;;;;;2.77;2.00;;;22.90;99.90;;;;;;5051961;28;20173;-73
2021/07/06 08:20:25;;;;;;;5.30;3.97;;;23.00;99.90;;;;;;5043772;28;20602;-73
2021/07/06 08:22:51;;;;;;;3.90;1.97;;;23.00;99.90;;;;;;5031468;28;20207;-73
2021/07/06 08:25:17;;;;;;;2.80;2.10;;;23.00;99.90;;;;;;5031899;28;20547;-73
2021/07/06 08:27:42;;;;;;;3.40;2.30;;;22.90;99.90;;;;;;5031740;28;20176;-73
2021/07/06 08:30:09;;;;;;;3.53;2.00;;;22.80;99.90;;;;;;5034409;28;20190;-73
2021/07/06 08:32:34;;;;;;;2.00;1.60;;;23.10;99.90;;;;;;5051568;28;20204;-74
2021/07/06 08:35:01;;;;;;;4.40;1.60;;;23.30;99.90;;;;;;5050640;28;20179;-73
2021/07/06 08:37:27;;;;;;;2.10;1.37;;;23.70;99.90;;;;;;5051437;28;20171;-73
2021/07/06 08:39:52;;;;;;;5.18;1.77;;;23.70;99.90;;;;;;5051614;28;20512;-73
2021/07/06 08:42:19;;;;;;;3.45;1.48;;;23.80;99.90;;;;;;5050548;28;20200;-73
2021/07/06 08:44:44;;;;;;;5.95;1.70;;;23.90;99.90;;;;;;5051152;28;20638;-73
2021/07/06 08:47:15;;;;;;;2.33;1.27;;;24.20;99.90;;;;;;5051392;28;20187;-73
2021/07/06 08:49:41;;;;;;;2.88;1.40;;;24.10;99.90;;;;;;5051510;28;20268;-73
2021/07/06 08:52:10;;;;;;;2.72;1.23;;;24.20;99.90;;;;;;5050829;28;20691;-71
2021/07/06 08:54:36;;;;;;;12.88;3.88;;;24.20;99.90;;;;;;5051282;28;20194;-72
2021/07/06 08:57:01;;;;;;;5.53;1.27;;;24.50;99.90;;;;;;5042765;28;20264;-74
2021/07/06 08:59:27;;;;;;;1.40;1.30;;;24.40;99.90;;;;;;5031160;28;20176;-73
2021/07/06 09:01:52;;;;;;;3.45;1.40;;;24.40;99.90;;;;;;5032237;28;20259;-73
2021/07/06 09:04:18;;;;;;;2.55;1.30;;;24.50;99.90;;;;;;5036811;28;20184;-73
2021/07/06 09:06:57;;;;;;;2.35;1.30;;;24.60;99.90;;;;;;5052837;28;20515;-73
2021/07/06 09:09:25;;;;;;;8.88;1.63;;;24.70;99.90;;;;;;5051040;28;20232;-74
2021/07/06 09:11:53;;;;;;;4.95;1.90;;;24.70;99.90;;;;;;5049910;28;20210;-73
2021/07/06 09:14:20;;;;;;;2.30;1.35;;;24.70;99.90;;;;;;5050141;28;20179;-74
2021/07/06 09:16:47;;;;;;;3.78;1.30;;;24.90;99.90;;;;;;5050402;28;20662;-74
2021/07/06 09:19:24;;;;;;;3.60;1.25;;;24.90;99.90;;;;;;5032727;28;20514;-73
2021/07/06 09:22:11;;;;;;;2.88;1.20;;;25.10;99.90;;;;;;5049523;28;20183;-73
2021/07/06 09:24:37;;;;;;;3.42;1.02;;;24.90;99.90;;;;;;5050516;28;20175;-74
2021/07/06 09:27:23;;;;;;;2.90;1.10;;;24.90;99.90;;;;;;5050923;28;20181;-73
2021/07/06 09:30:14;;;;;;;2.15;1.20;;;25.30;99.90;;;;;;5047902;28;20183;-73
2021/07/06 09:32:52;;;;;;;3.33;1.20;;;25.50;99.90;;;;;;5031283;28;20573;-73
2021/07/06 09:35:25;;;;;;;5.00;1.30;;;25.70;99.90;;;;;;5072522;28;20180;-73
2021/07/06 09:38:02;;;;;;;5.03;1.20;;;25.70;99.90;;;;;;5076581;28;20225;-73
2021/07/06 09:40:27;;;;;;;1.90;1.38;;;25.80;99.90;;;;;;5050472;28;20223;-74
2021/07/06 09:43:12;;;;;;;2.15;1.30;;;26.10;99.90;;;;;;5038558;28;20221;-73
2021/07/06 09:45:38;;;;;;;2.55;1.70;;;26.30;99.90;;;;;;5054111;28;20179;-72
2021/07/06 09:48:12;;;;;;;3.83;1.48;;;26.40;99.90;;;;;;5060034;28;20187;-73
2021/07/06 09:50:38;;;;;;;5.82;1.30;;;26.30;99.90;;;;;;5062615;28;20291;-73
2021/07/06 09:53:04;;;;;;;5.55;1.20;;;26.30;99.90;;;;;;5048638;28;20682;-72
2021/07/06 09:55:32;;;;;;;1.10;0.90;;;26.20;99.90;;;;;;5054686;28;20234;-73
2021/07/06 09:58:04;;;;;;;1.15;1.00;;;25.90;99.90;;;;;;5051185;28;20235;-73
2021/07/06 10:00:31;;;;;;;4.53;1.23;;;25.80;99.90;;;;;;5046587;28;20182;-73
2021/07/06 10:03:01;;;;;;;2.03;1.10;;;26.00;99.90;;;;;;5040698;28;20588;-73
2021/07/06 10:05:28;;;;;;;3.15;1.33;;;26.10;99.90;;;;;;5051673;28;20182;-73
2021/07/06 10:07:55;;;;;;;3.17;1.02;;;26.60;99.90;;;;;;5047055;28;20182;-73
2021/07/06 10:10:21;;;;;;;1.55;1.08;;;26.80;99.90;;;;;;5052115;28;20177;-73
2021/07/06 10:12:48;;;;;;;5.00;1.10;;;26.90;99.90;;;;;;5055964;28;20205;-73
2021/07/06 10:15:16;;;;;;;3.08;1.10;;;27.00;99.90;;;;;;5056346;28;20563;-72
2021/07/06 10:17:43;;;;;;;1.65;1.05;;;26.90;99.90;;;;;;5056751;28;20176;-72
2021/07/06 10:20:15;;;;;;;1.15;1.00;;;26.70;99.90;;;;;;5056851;28;20166;-72
2021/07/06 10:22:41;;;;;;;0.93;0.90;;;27.00;99.90;;;;;;5056047;28;20216;-71
2021/07/06 10:25:09;;;;;;;3.05;1.00;;;27.40;99.90;;;;;;5056699;28;20181;-71
2021/07/06 10:27:38;;;;;;;2.10;1.23;;;27.60;99.90;;;;;;5055574;28;20174;-72
2021/07/06 10:30:17;;;;;;;4.32;1.10;;;27.70;99.90;;;;;;5054501;28;20192;-73
2021/07/06 10:32:55;;;;;;;5.43;1.05;;;27.80;99.90;;;;;;5042346;28;20254;-73
2021/07/06 10:35:46;;;;;;;2.33;1.20;;;27.90;99.90;;;;;;5076973;28;20668;-72
2021/07/06 10:38:27;;;;;;;2.22;1.13;;;28.20;99.90;;;;;;5060244;28;20196;-73
2021/07/06 10:40:57;;;;;;;2.78;1.10;;;28.40;99.90;;;;;;5055977;28;20177;-73
2021/07/06 10:43:53;;;;;;;3.05;0.98;;;28.30;99.90;;;;;;5057117;28;20276;-72
2021/07/06 10:46:22;;;;;;;2.63;1.00;;;28.40;99.90;;;;;;5040190;28;20224;-72
2021/07/06 10:49:02;;;;;;;4.68;1.00;;;28.40;99.90;;;;;;5059955;28;20165;-73
2021/07/06 10:51:34;;;;;;;2.90;1.20;;;28.40;99.90;;;;;;5075583;28;20211;-73
2021/07/06 10:54:07;;;;;;;1.38;1.05;;;28.00;99.90;;;;;;5076375;28;20252;-73
2021/07/06 10:56:38;;;;;;;2.25;1.00;;;27.90;99.90;;;;;;5075833;28;20540;-72
2021/07/06 10:59:05;;;;;;;3.78;1.20;;;27.60;99.90;;;;;;5055346;28;20193;-73
2021/07/06 11:01:37;;;;;;;3.75;1.25;;;27.40;99.90;;;;;;5052653;28;20188;-72
2021/07/06 11:04:07;;;;;;;4.82;1.25;;;27.60;99.90;;;;;;5051160;28;20201;-73
2021/07/06 11:06:45;;;;;;;1.92;1.20;;;27.60;99.90;;;;;;5060962;28;20276;-73
2021/07/06 11:09:32;;;;;;;2.08;1.17;;;27.70;99.90;;;;;;5060553;28;20284;-73
2021/07/06 11:12:17;;;;;;;3.45;1.10;;;27.90;99.90;;;;;;5030996;28;20704;-73
2021/07/06 11:14:46;;;;;;;3.03;1.08;;;28.00;99.90;;;;;;5052863;28;20268;-74
2021/07/06 11:17:11;;;;;;;1.50;1.17;;;28.20;99.90;;;;;;5035058;28;20174;-73
2021/07/06 11:19:42;;;;;;;2.42;1.10;;;28.20;99.90;;;;;;5053368;28;20184;-73
2021/07/06 11:22:12;;;;;;;2.95;1.25;;;28.10;99.90;;;;;;5050410;28;20193;-73
2021/07/06 11:24:43;;;;;;;1.98;1.30;;;28.50;99.90;;;;;;5052937;28;20161;-73
2021/07/06 11:27:09;;;;;;;3.13;1.30;;;28.60;99.90;;;;;;5053229;28;20273;-73
2021/07/06 11:29:37;;;;;;;3.85;1.20;;;28.90;99.90;;;;;;5053030;28;20170;-73
2021/07/06 11:32:08;;;;;;;1.67;0.90;;;28.70;99.90;;;;;;5059654;28;20201;-73
2021/07/06 11:34:35;;;;;;;2.90;1.70;;;28.70;99.90;;;;;;5038022;28;20173;-73
2021/07/06 11:37:05;;;;;;;2.45;1.10;;;28.80;99.90;;;;;;5053185;28;20183;-74
2021/07/06 11:39:34;;;;;;;3.90;1.23;;;28.50;99.90;;;;;;5053441;28;20524;-73
2021/07/06 11:41:59;;;;;;;4.25;1.95;;;28.50;99.90;;;;;;5048753;28;20219;-73
2021/07/06 11:44:25;;;;;;;2.20;1.50;;;28.40;99.90;;;;;;5034828;28;20256;-73
2021/07/06 11:46:56;;;;;;;3.05;1.35;;;28.50;99.90;;;;;;5052760;28;20252;-73
2021/07/06 11:49:22;;;;;;;2.25;1.10;;;28.50;99.90;;;;;;5015908;28;20297;-73
2021/07/06 11:51:47;;;;;;;3.10;1.50;;;28.50;99.90;;;;;;5031665;28;20260;-73
2021/07/06 11:54:16;;;;;;;3.60;1.20;;;28.00;99.90;;;;;;5032646;28;20537;-73
2021/07/06 11:56:41;;;;;;;4.25;1.20;;;28.00;99.90;;;;;;5032727;28;20184;-73
2021/07/06 11:59:11;;;;;;;3.25;1.13;;;28.10;99.90;;;;;;5015344;28;20174;-73
2021/07/06 12:01:37;;;;;;;3.88;1.20;;;27.90;99.90;;;;;;5051827;28;20174;-73
2021/07/06 12:04:03;;;;;;;2.05;0.90;;;28.20;99.90;;;;;;5052181;28;20170;-73
2021/07/06 12:06:31;;;;;;;2.25;1.00;;;28.60;99.90;;;;;;5053357;28;20227;-73
2021/07/06 12:09:02;;;;;;;1.60;1.50;;;29.10;99.90;;;;;;5054038;28;20649;-73
2021/07/06 12:11:31;;;;;;;2.58;1.10;;;29.50;99.90;;;;;;5054696;28;20185;-73
2021/07/06 12:14:00;;;;;;;1.77;1.05;;;29.50;99.90;;;;;;5052653;28;20192;-73
2021/07/06 12:16:29;;;;;;;2.67;1.20;;;29.30;99.90;;;;;;5052489;28;20522;-72
2021/07/06 12:19:00;;;;;;;2.67;1.02;;;29.30;99.90;;;;;;5052171;28;20176;-72
2021/07/06 12:21:35;;;;;;;2.10;1.30;;;29.30;99.90;;;;;;5051308;28;20177;-73
2021/07/06 12:24:12;;;;;;;1.98;1.10;;;29.20;99.90;;;;;;5051647;28;20205;-72
2021/07/06 12:26:43;;;;;;;1.90;1.35;;;29.50;99.90;;;;;;5051824;28;20170;-72
2021/07/06 12:29:09;;;;;;;2.47;1.08;;;29.30;99.90;;;;;;5051832;28;20578;-72
2021/07/06 12:31:39;;;;;;;1.35;1.08;;;29.00;99.90;;;;;;5048817;28;20197;-72
2021/07/06 12:34:10;;;;;;;1.88;1.15;;;28.60;99.90;;;;;;5050607;28;20177;-73
2021/07/06 12:36:46;;;;;;;2.28;1.52;;;28.50;99.90;;;;;;5050007;28;20264;-72
2021/07/06 12:39:21;;;;;;;1.30;1.20;;;28.50;99.90;;;;;;5051851;28;20173;-72
2021/07/06 12:41:52;;;;;;;2.28;1.10;;;28.50;99.90;;;;;;5050985;28;20227;-72
2021/07/06 12:44:31;;;;;;;1.20;1.00;;;28.70;99.90;;;;;;5051329;28;20584;-73
2021/07/06 12:47:38;;;;;;;1.05;1.05;;;28.70;99.90;;;;;;5033843;28;20173;-72
2021/07/06 12:50:22;;;;;;;3.00;1.23;;;28.80;99.90;;;;;;5040723;28;20203;-73
2021/07/06 12:52:52;;;;;;;3.53;1.40;;;29.10;99.90;;;;;;5051051;28;20197;-74
2021/07/06 12:55:21;;;;;;;3.72;1.40;;;29.00;99.90;;;;;;5052706;28;20192;-73